Latest Weather Observations for Nowra

IDN60801

Issued at 2:12 pm EST Thursday 28 May 2020 (issued every 10 minutes, with the page automatically refreshed every 10 minutes)

About weather observations | Map of weather stations | Latest weather observations for NSW | Other Formats
Station Details ID: 068072 Name: NOWRA RAN AIR STATION AWS Lat: -34.95 Lon: 150.54 Height: 109.0 m
Data from the previous 72 hours. | See also: Recent months at Nowra
Date/Time
EST
Temp
°C
App
Temp
°C
Dew
Point
°C
Rel
Hum
%
Delta-T
°C
Wind Press
QNH
hPa
Press
MSL
hPa
Rain since
9am
mm
Dir  Spd
km/h
Gust
km/h
Spd
kts
Gust
kts
28/02:00pm 20.3 17.2 8.9 48 6.0 SSE 15 20 8 11 1019.2 1019.2 0.0
28/01:30pm 21.0 18.6 6.9 40 7.2 W 9 13 5 7 1019.1 1019.1 0.0
28/01:00pm 20.9 17.9 7.9 43 6.8 W 13 17 7 9 1019.4 1019.4 0.0
28/12:30pm 20.9 17.3 8.2 44 6.7 SW 17 24 9 13 1019.6 1019.6 0.0
28/12:00pm 20.3 17.8 8.0 45 6.4 WNW 11 17 6 9 1019.8 1019.8 0.0
28/11:30am 19.8 16.8 9.4 51 5.5 W 15 20 8 11 1020.2 1020.2 0.0
28/11:00am 19.1 15.7 9.3 53 5.2 W 17 24 9 13 1020.5 1020.5 0.0
28/10:30am 18.4 14.8 9.7 57 4.6 W 19 24 10 13 1020.7 1020.7 0.0
28/10:00am 17.4 15.0 10.1 62 3.9 W 13 19 7 10 1020.9 1020.9 0.0
28/09:30am 16.1 13.7 10.0 67 3.2 WNW 13 19 7 10 1020.9 1020.9 0.0
28/09:00am 15.6 12.0 9.7 68 3.1 WNW 19 24 10 13 1020.6 1020.6 0.0
28/08:30am 14.1 11.2 9.7 75 2.3 NW 15 20 8 11 1020.6 1020.6 0.0
28/08:00am 12.9 11.1 9.4 79 1.8 WNW 9 15 5 8 1020.6 1020.6 0.0
28/07:30am 11.0 9.2 9.3 89 0.9 W 9 11 5 6 1020.4 1020.4 0.0
28/07:00am 10.3 7.3 9.2 93 0.5 W 15 17 8 9 1020.0 1020.0 0.0
28/06:30am 9.6 6.9 8.8 95 0.4 W 13 17 7 9 1019.7 1019.7 0.0
28/06:00am 9.2 7.4 7.8 91 0.7 WSW 7 11 4 6 1019.5 1019.5 0.0
28/05:30am 11.1 8.5 9.2 88 1.0 WNW 13 20 7 11 1019.2 1019.2 0.0
28/05:00am 11.5 7.8 9.4 87 1.1 WNW 19 22 10 12 1019.1 1019.1 0.0
28/04:30am 11.1 8.2 9.7 91 0.7 NW 15 19 8 10 1019.2 1019.2 0.0
28/04:00am 11.1 7.9 10.0 93 0.6 WNW 17 19 9 10 1019.3 1019.3 0.0
28/03:30am 10.8 8.1 10.3 97 0.3 WNW 15 17 8 9 1019.3 1019.3 0.0
28/03:00am 10.8 8.2 10.6 99 0.1 NW 15 19 8 10 1019.2 1019.2 0.0
28/02:30am 11.0 8.4 10.8 99 0.1 WNW 15 17 8 9 1019.2 1019.2 0.0
28/02:00am 10.7 8.4 10.5 99 0.1 WNW 13 15 7 8 1019.2 1019.2 0.0
28/01:30am 10.7 8.8 10.5 99 0.1 WNW 11 13 6 7 1019.4 1019.4 0.0
28/01:00am 10.7 8.9 10.7 100 0.0 WNW 11 13 6 7 1019.4 1019.4 0.0
28/12:30am 10.6 8.7 10.6 100 0.0 WNW 11 13 6 7 1019.6 1019.6 0.0
28/12:00am 11.1 9.4 11.1 100 0.0 NW 11 15 6 8 1019.7 1019.7 0.0
 
Date/Time
EST
Temp
°C
App
Temp
°C
Dew
Point
°C
Rel
Hum
%
Delta-T
°C
Wind Press
QNH
hPa
Press
MSL
hPa
Rain since
9am
mm
Dir  Spd
km/h
Gust
km/h
Spd
kts
Gust
kts
27/11:30pm 9.7 8.9 9.7 100 0.0 NW 4 11 2 6 1019.8 1019.8 0.0
27/11:00pm 10.0 9.3 10.0 100 0.0 WNW 4 13 2 7 1019.9 1019.9 0.0
27/10:30pm 10.7 10.2 10.7 100 0.0 WNW 4 9 2 5 1020.2 1020.2 0.0
27/10:00pm 10.9 11.2 10.9 100 0.0 CALM 0 4 0 2 1020.5 1020.5 0.0
27/09:30pm 11.3 11.3 11.3 100 0.0 WNW 2 7 1 4 1020.6 1020.6 0.0
27/09:00pm 11.3 11.7 11.3 100 0.0 CALM 0 0 0 0 1020.4 1020.4 0.0
27/08:30pm 11.5 10.8 11.5 100 0.0 W 6 9 3 5 1020.5 1020.5 0.0
27/08:00pm 12.2 11.6 12.2 100 0.0 W 7 9 4 5 1020.3 1020.3 0.0
27/07:30pm 11.5 10.8 11.3 99 0.1 WSW 6 7 3 4 1020.3 1020.3 0.0
27/07:00pm 11.8 12.3 11.6 99 0.1 CALM 0 0 0 0 1020.3 1020.3 0.0
27/06:30pm 12.4 13.1 12.2 99 0.1 CALM 0 0 0 0 1020.2 1020.2 0.0
27/06:00pm 12.7 13.4 12.1 96 0.3 CALM 0 2 0 1 1020.0 1020.0 0.0
27/05:30pm 13.7 14.3 11.9 89 1.0 CALM 0 0 0 0 1019.9 1019.9 0.0
27/05:00pm 14.3 13.6 12.0 86 1.2 ESE 7 11 4 6 1019.7 1019.7 0.0
27/04:30pm 15.4 14.3 11.8 79 2.0 ESE 9 15 5 8 1019.6 1019.6 0.0
27/04:00pm 16.6 15.4 11.7 73 2.7 SE 9 11 5 6 1019.5 1019.5 0.0
27/03:30pm 17.4 15.6 12.1 71 2.9 ESE 13 17 7 9 1019.3 1019.3 0.0
27/03:00pm 17.4 17.3 9.6 60 4.1 CALM 0 0 0 0 1019.5 1019.5 0.0
27/02:30pm 18.6 18.1 10.9 61 4.2 NNW 4 9 2 5 1019.8 1019.8 0.0
27/02:00pm 17.2 16.0 10.3 64 3.7 N 7 11 4 6 1019.9 1019.9 0.0
27/01:30pm 18.5 18.0 10.6 60 4.3 WNW 4 9 2 5 1020.2 1020.2 0.0
27/01:00pm 18.2 16.6 10.1 59 4.3 NW 9 13 5 7 1020.7 1020.7 0.0
27/12:30pm 17.6 16.8 10.9 65 3.6 NNW 6 9 3 5 1020.9 1020.9 0.0
27/12:00pm 16.4 15.1 11.1 71 2.8 NNW 9 13 5 7 1021.4 1021.4 0.0
27/11:30am 16.5 15.2 11.4 72 2.8 NNW 9 13 5 7 1021.8 1021.8 0.0
27/11:00am 16.9 16.0 11.2 69 3.1 NNW 7 11 4 6 1022.1 1022.1 0.0
27/10:30am 16.5 15.5 10.4 67 3.2 WNW 6 13 3 7 1022.6 1022.6 0.0
27/10:00am 15.9 14.1 10.7 71 2.8 W 11 17 6 9 1022.9 1022.8 0.0
27/09:30am 14.5 12.9 11.5 82 1.6 WNW 11 13 6 7 1023.0 1022.9 0.0
27/09:00am 14.4 12.5 11.7 84 1.5 WNW 13 15 7 8 1023.1 1023.0 4.6
27/08:30am 12.9 11.7 12.7 99 0.1 NW 11 15 6 8 1023.3 1023.2 4.6
27/08:00am 12.3 10.9 12.1 99 0.1 WNW 11 15 6 8 1023.1 1023.0 4.6
27/07:30am 11.9 10.8 11.9 100 0.0 W 9 13 5 7 1023.0 1022.9 4.6
27/07:00am 11.8 11.0 11.6 99 0.1 WNW 7 9 4 5 1023.1 1023.0 4.6
27/06:40am 11.8 10.3 11.8 100 0.0 W 11 13 6 7 1023.1 1023.0 4.6
27/06:30am 11.8 11.2 11.8 100 0.0 W 6 9 3 5 1023.0 1022.9 4.6
27/06:23am 11.8 11.0 11.8 100 0.0 WNW 7 11 4 6 1022.8 1022.7 4.6
27/06:00am 11.8 10.3 11.8 100 0.0 NW 11 13 6 7 1022.5 1022.5 4.6
27/05:45am 11.9 10.3 11.7 99 0.1 NW 11 13 6 7 1022.5 1022.5 4.6
27/05:30am 11.9 11.1 11.7 99 0.1 NNW 7 13 4 7 1022.6 1022.6 4.6
27/05:16am 11.8 12.3 11.6 99 0.1 CALM 0 0 0 0 1022.5 1022.5 4.4
27/05:00am 11.8 12.3 11.6 99 0.1 CALM 0 0 0 0 1022.6 1022.6 4.4
27/04:30am 11.8 11.2 11.6 99 0.1 NW 6 9 3 5 1022.6 1022.6 4.4
27/04:00am 11.2 11.5 11.0 99 0.1 CALM 0 0 0 0 1022.3 1022.3 4.4
27/03:30am 11.6 10.6 11.1 97 0.3 WNW 7 11 4 6 1022.8 1022.7 4.4
27/03:00am 12.1 10.7 11.0 93 0.6 NW 9 13 5 7 1023.1 1023.0 4.4
27/02:30am 12.1 10.8 11.2 94 0.5 N 9 11 5 6 1023.4 1023.3 4.4
27/02:00am 12.7 11.4 11.1 90 0.8 SW 9 13 5 7 1023.2 1023.1 4.4
27/01:30am 12.7 10.2 10.9 89 0.9 SSW 15 20 8 11 1023.2 1023.1 4.4
27/01:00am 12.4 9.6 11.5 94 0.5 SW 17 20 9 11 1023.4 1023.3 4.4
27/12:30am 12.2 9.2 10.8 91 0.7 SW 17 20 9 11 1023.7 1023.6 4.4
27/12:00am 12.5 10.7 12.0 97 0.3 SW 13 17 7 9 1023.9 1023.8 4.4
 
Date/Time
EST
Temp
°C
App
Temp
°C
Dew
Point
°C
Rel
Hum
%
Delta-T
°C
Wind Press
QNH
hPa
Press
MSL
hPa
Rain since
9am
mm
Dir  Spd
km/h
Gust
km/h
Spd
kts
Gust
kts
26/11:30pm 11.7 9.5 10.9 95 0.4 SW 13 15 7 8 1024.0 1023.9 4.4
26/11:00pm 12.5 10.5 11.6 94 0.5 SW 13 15 7 8 1024.0 1023.9 4.4
26/10:30pm 13.0 11.0 12.7 98 0.2 SW 15 28 8 15 1024.0 1023.9 4.4
26/10:00pm 13.4 11.4 12.6 95 0.4 S 15 26 8 14 1023.8 1023.7 4.4
26/09:30pm 13.1 11.9 11.5 90 0.9 SSW 9 11 5 6 1024.0 1023.9 4.4
26/09:00pm 13.6 10.9 11.7 88 1.0 SSW 17 20 9 11 1024.1 1024.0 4.4
26/08:30pm 13.4 10.2 12.0 91 0.8 SSW 20 26 11 14 1023.9 1023.8 4.4
26/08:00pm 13.1 11.2 11.7 91 0.7 S 13 19 7 10 1024.1 1024.0 4.4
26/07:30pm 13.5 11.0 12.2 92 0.7 SSW 17 20 9 11 1024.0 1023.9 4.4
26/07:00pm 13.7 10.7 12.4 92 0.7 S 20 26 11 14 1023.7 1023.6 4.4
26/06:30pm 14.1 11.7 12.8 92 0.7 SSW 17 20 9 11 1023.8 1023.7 4.4
26/06:00pm 13.9 12.9 13.3 96 0.3 SW 11 13 6 7 1023.5 1023.4 4.4
26/05:30pm 14.4 12.4 12.8 90 0.9 SSW 15 19 8 10 1023.4 1023.3 4.2
26/05:00pm 14.5 12.2 13.0 91 0.8 SSW 17 20 9 11 1023.2 1023.1 4.2
26/04:30pm 14.7 12.8 13.1 90 0.9 SSW 15 20 8 11 1022.9 1022.8 4.2
26/04:00pm 14.8 13.2 14.0 95 0.5 SSW 15 19 8 10 1022.8 1022.7 4.2
26/03:30pm 14.6 12.7 14.1 97 0.3 S 17 24 9 13 1022.6 1022.6 4.2
26/03:21pm 14.4 13.3 14.2 99 0.1 S 13 17 7 9 1022.6 1022.6 4.2
26/03:05pm 14.5 13.6 13.7 95 0.4 E 11 15 6 8 1022.6 1022.6 3.6
26/03:00pm 14.5 13.1 13.5 94 0.6 ESE 13 17 7 9 1022.6 1022.6 3.0
26/02:57pm 14.7 13.4 13.7 94 0.6 ESE 13 17 7 9 1022.8 1022.7 3.0
26/02:41pm 14.8 11.7 12.3 85 1.4 SSE 20 28 11 15 1022.8 1022.7 3.0
26/02:30pm 16.2 13.2 12.0 76 2.3 SSE 19 24 10 13 1022.6 1022.6 3.0
26/02:00pm 16.4 12.8 11.8 74 2.5 S 22 28 12 15 1022.5 1022.5 3.0
26/01:30pm 15.7 11.5 12.5 81 1.8 S 26 41 14 22 1022.8 1022.7 3.0
26/01:00pm 16.1 13.3 12.7 80 1.9 SSE 19 26 10 14 1023.1 1023.0 3.0
26/12:30pm 16.4 13.4 12.6 78 2.1 SSE 20 32 11 17 1023.5 1023.4 3.0
26/12:00pm 16.4 13.4 13.7 84 1.5 S 22 32 12 17 1023.6 1023.5 3.0
26/11:30am 16.5 13.4 14.5 88 1.2 SSW 24 32 13 17 1023.8 1023.7 3.0
26/11:00am 14.3 12.8 14.3 100 0.0 SSE 15 20 8 11 1024.4 1024.3 3.0
26/10:38am 13.9 12.7 13.9 100 0.0 S 13 19 7 10 1024.5 1024.4 3.0
26/10:30am 13.4 12.0 13.4 100 0.0 SSE 13 19 7 10 1024.4 1024.3 2.8
26/10:00am 13.0 11.1 13.0 100 0.0 SSE 15 22 8 12 1024.4 1024.3 2.2
26/09:30am 13.0 11.1 13.0 100 0.0 S 15 20 8 11 1024.3 1024.2 1.4
26/09:25am 13.0 11.1 13.0 100 0.0 S 15 20 8 11 1024.2 1024.1 1.2
26/09:00am 12.8 10.4 12.8 100 0.0 S 17 22 9 12 1024.1 1024.0 4.2
26/08:44am 12.7 9.4 12.7 100 0.0 SSW 22 30 12 16 1024.0 1023.9 3.2
26/08:30am 12.6 8.0 12.4 99 0.1 SSW 28 39 15 21 1023.8 1023.7 3.0
26/08:00am 12.4 7.8 12.2 99 0.1 SSW 28 39 15 21 1023.3 1023.2 3.0
26/07:30am 12.4 7.4 12.2 99 0.1 S 30 41 16 22 1023.2 1023.1 3.0
26/07:08am 12.6 7.9 12.0 96 0.3 SSW 28 43 15 23 1022.9 1022.8 3.0
26/07:00am 12.5 8.2 12.0 97 0.3 SSW 26 37 14 20 1022.9 1022.8 3.0
26/06:30am 12.5 8.1 11.7 95 0.4 S 26 37 14 20 1022.8 1022.7 3.0
26/06:00am 12.5 7.8 11.9 96 0.3 S 28 37 15 20 1022.6 1022.6 3.0
26/05:30am 12.0 8.7 11.5 97 0.3 S 20 28 11 15 1022.4 1022.4 2.8
26/05:00am 12.4 8.8 10.6 89 0.9 S 20 30 11 16 1022.3 1022.3 2.8
26/04:30am 12.3 7.9 10.5 89 0.9 S 24 35 13 19 1022.0 1022.0 2.8
26/04:00am 12.1 8.1 10.3 89 0.9 SSW 22 35 12 19 1022.2 1022.2 2.8
26/03:30am 12.1 7.7 10.3 89 0.9 SSW 24 39 13 21 1022.2 1022.2 2.8
26/03:00am 12.5 8.1 10.4 87 1.1 SSW 24 39 13 21 1022.3 1022.3 2.8
26/02:30am 12.3 7.9 10.5 89 0.9 SSW 24 35 13 19 1022.3 1022.3 2.8
26/02:12am 11.8 7.9 10.9 94 0.5 SSW 22 39 12 21 1022.6 1022.6 2.8
26/02:00am 12.0 7.7 10.6 91 0.7 SSW 24 37 13 20 1022.5 1022.5 2.8
26/01:58am 12.1 7.8 10.7 91 0.7 SSW 24 37 13 20 1022.5 1022.5 2.8
26/01:30am 11.8 7.1 10.7 93 0.6 SSW 26 37 14 20 1022.5 1022.5 2.8
26/01:06am 11.6 7.8 11.0 96 0.3 SSW 22 33 12 18 1022.6 1022.6 2.8
26/01:00am 11.5 7.6 10.9 96 0.3 SSW 22 32 12 17 1022.6 1022.6 2.8
26/12:51am 11.7 7.7 10.6 93 0.6 SSW 22 30 12 16 1022.9 1022.8 2.8
26/12:30am 12.3 7.8 10.2 87 1.1 SSW 24 33 13 18 1023.0 1022.9 2.8
26/12:00am 12.3 7.8 10.2 87 1.1 S 24 37 13 20 1023.0 1022.9 2.8
 
Date/Time
EST
Temp
°C
App
Temp
°C
Dew
Point
°C
Rel
Hum
%
Delta-T
°C
Wind Press
QNH
hPa
Press
MSL
hPa
Rain since
9am
mm
Dir  Spd
km/h
Gust
km/h
Spd
kts
Gust
kts
25/11:30pm 12.8 7.8 9.6 81 1.6 S 26 43 14 23 1022.8 1022.7 2.8
25/11:00pm 13.0 8.5 10.0 82 1.5 SSW 24 35 13 19 1022.4 1022.4 2.8
25/10:30pm 12.4 7.2 10.1 86 1.2 SSW 28 41 15 22 1022.2 1022.2 2.8
25/10:00pm 12.4 7.0 11.0 91 0.7 SSW 30 44 16 24 1022.2 1022.2 2.8
25/09:30pm 12.0 6.4 11.5 97 0.3 SSW 32 41 17 22 1022.0 1022.0 2.8
25/09:24pm 12.0 6.5 11.8 99 0.1 SSW 32 50 17 27 1022.1 1022.1 2.8
25/09:12pm 11.9 6.2 11.7 99 0.1 SSW 33 46 18 25 1022.2 1022.2 2.8
25/09:03pm 11.8 6.6 11.6 99 0.1 SSW 30 41 16 22 1022.1 1022.1 2.8
25/09:00pm 11.8 6.7 11.8 100 0.0 SSW 30 41 16 22 1022.1 1022.1 2.8
25/08:36pm 11.7 6.5 11.7 100 0.0 SSW 30 48 16 26 1022.1 1022.1 2.8
25/08:30pm 11.8 6.7 11.8 100 0.0 SSW 30 43 16 23 1022.1 1022.1 2.8
25/08:00pm 11.8 6.7 11.8 100 0.0 SSW 30 41 16 22 1021.6 1021.6 2.6
25/07:30pm 11.8 7.4 11.8 100 0.0 SSW 26 39 14 21 1021.3 1021.3 2.4
25/07:00pm 11.8 7.4 11.8 100 0.0 SSW 26 37 14 20 1021.1 1021.1 2.2
25/06:30pm 12.0 6.9 12.0 100 0.0 SSW 30 43 16 23 1020.8 1020.8 1.8
25/06:00pm 12.1 7.4 12.1 100 0.0 SSW 28 35 15 19 1020.6 1020.6 1.6
25/05:30pm 12.0 6.9 12.0 100 0.0 SSW 30 39 16 21 1020.4 1020.4 1.4
25/05:00pm 12.1 7.8 12.1 100 0.0 SSW 26 37 14 20 1020.2 1020.2 0.8
25/04:30pm 12.2 7.5 12.0 99 0.1 SSW 28 44 15 24 1019.9 1019.9 0.2
25/04:00pm 12.4 7.4 12.2 99 0.1 SSW 30 44 16 24 1019.7 1019.7 0.2
25/03:30pm 12.7 8.2 12.5 99 0.1 SSW 28 39 15 21 1019.7 1019.7 0.0
25/03:07pm 13.1 7.5 11.5 90 0.9 SSW 32 48 17 26 1019.5 1019.5 0.0
25/03:00pm 13.4 7.5 11.1 86 1.2 SSW 33 46 18 25 1019.4 1019.4 0.0
25/02:55pm 13.6 6.8 10.8 83 1.5 SSW 37 56 20 30 1019.4 1019.4 0.0
25/02:51pm 13.9 6.7 10.7 81 1.7 SSW 39 56 21 30 1019.3 1019.3 0.0
25/02:41pm 14.5 7.9 10.1 75 2.3 SSW 35 56 19 30 1019.1 1019.1 0.0
25/02:30pm 15.3 9.2 10.3 72 2.6 SSW 33 50 18 27 1019.0 1019.0 0.0

Other formats

Comma delimited format used in spreadsheet applications
http://www.bom.gov.au/fwo/IDN60801/IDN60801.94750.axf

JavaScript Object Notation format (JSON) in row-major order
http://www.bom.gov.au/fwo/IDN60801/IDN60801.94750.json

Data quality

Most of these data are generated automatically and are frequently updated. Quality checks on data are not normally performed. It is possible for incorrect values to appear. Refer to information at About Latest Weather Observations and please check the disclaimer before using these data.